sensor_id;sensor_type;location;lat;lon;timestamp;pressure;altitude;pressure_sealevel;temperature;humidity
13387;BME280;6763;48.524;9.044;2023-03-16T00:00:55;98153.25;;;4.96;55.43
13387;BME280;6763;48.524;9.044;2023-03-16T00:03:21;98154.97;;;4.94;55.13
13387;BME280;6763;48.524;9.044;2023-03-16T00:05:48;98148.97;;;4.94;55.41
13387;BME280;6763;48.524;9.044;2023-03-16T00:08:14;98142.97;;;4.92;55.54
13387;BME280;6763;48.524;9.044;2023-03-16T00:10:40;98147.19;;;4.87;55.39
13387;BME280;6763;48.524;9.044;2023-03-16T00:13:14;98142.03;;;4.85;55.33
13387;BME280;6763;48.524;9.044;2023-03-16T00:15:40;98141.16;;;4.82;55.20
13387;BME280;6763;48.524;9.044;2023-03-16T00:18:06;98142.81;;;4.78;55.09
13387;BME280;6763;48.524;9.044;2023-03-16T00:20:31;98143.66;;;4.74;55.25
13387;BME280;6763;48.524;9.044;2023-03-16T00:22:57;98143.63;;;4.73;55.22
13387;BME280;6763;48.524;9.044;2023-03-16T00:25:23;98142.75;;;4.69;55.04
13387;BME280;6763;48.524;9.044;2023-03-16T00:27:48;98152.09;;;4.67;54.94
13387;BME280;6763;48.524;9.044;2023-03-16T00:30:14;98152.09;;;4.64;55.17
13387;BME280;6763;48.524;9.044;2023-03-16T00:32:39;98153.75;;;4.62;55.44
13387;BME280;6763;48.524;9.044;2023-03-16T00:35:05;98152.03;;;4.60;55.59
13387;BME280;6763;48.524;9.044;2023-03-16T00:37:31;98155.41;;;4.57;55.46
13387;BME280;6763;48.524;9.044;2023-03-16T00:39:57;98154.56;;;4.55;55.78
13387;BME280;6763;48.524;9.044;2023-03-16T00:42:25;98156.28;;;4.56;55.46
13387;BME280;6763;48.524;9.044;2023-03-16T00:45:00;98157.94;;;4.51;55.24
13387;BME280;6763;48.524;9.044;2023-03-16T00:47:30;98164.72;;;4.46;54.73
13387;BME280;6763;48.524;9.044;2023-03-16T00:49:56;98165.50;;;4.42;54.94
13387;BME280;6763;48.524;9.044;2023-03-16T00:52:22;98166.34;;;4.38;54.67
13387;BME280;6763;48.524;9.044;2023-03-16T00:54:49;98169.69;;;4.34;54.82
13387;BME280;6763;48.524;9.044;2023-03-16T00:57:17;98161.13;;;4.30;55.08
13387;BME280;6763;48.524;9.044;2023-03-16T00:59:46;98158.56;;;4.32;55.71
13387;BME280;6763;48.524;9.044;2023-03-16T01:02:13;98161.13;;;4.33;56.18
13387;BME280;6763;48.524;9.044;2023-03-16T01:04:39;98155.19;;;4.34;55.59
13387;BME280;6763;48.524;9.044;2023-03-16T01:07:07;98156.88;;;4.32;55.35
13387;BME280;6763;48.524;9.044;2023-03-16T01:09:33;98161.13;;;4.30;55.13
13387;BME280;6763;48.524;9.044;2023-03-16T01:12:03;98158.50;;;4.27;55.32
13387;BME280;6763;48.524;9.044;2023-03-16T01:14:30;98152.50;;;4.25;55.39
13387;BME280;6763;48.524;9.044;2023-03-16T01:16:55;98152.50;;;4.25;55.42
13387;BME280;6763;48.524;9.044;2023-03-16T01:19:21;98155.91;;;4.26;55.31
13387;BME280;6763;48.524;9.044;2023-03-16T01:21:46;98144.84;;;4.28;55.93
13387;BME280;6763;48.524;9.044;2023-03-16T01:24:12;98144.97;;;4.39;56.39
13387;BME280;6763;48.524;9.044;2023-03-16T01:26:38;98149.31;;;4.45;56.30
13387;BME280;6763;48.524;9.044;2023-03-16T01:29:03;98152.69;;;4.42;55.84
13387;BME280;6763;48.524;9.044;2023-03-16T01:31:28;98149.28;;;4.42;55.88
13387;BME280;6763;48.524;9.044;2023-03-16T01:33:54;98156.09;;;4.39;56.05
13387;BME280;6763;48.524;9.044;2023-03-16T01:36:19;98156.03;;;4.36;55.43
13387;BME280;6763;48.524;9.044;2023-03-16T01:38:45;98150.91;;;4.35;55.97
13387;BME280;6763;48.524;9.044;2023-03-16T01:41:11;98148.34;;;4.35;55.95
13387;BME280;6763;48.524;9.044;2023-03-16T01:43:38;98155.19;;;4.34;55.86
13387;BME280;6763;48.524;9.044;2023-03-16T01:51:10;98145.63;;;4.23;55.56
13387;BME280;6763;48.524;9.044;2023-03-16T01:53:37;98140.50;;;4.20;55.61
13387;BME280;6763;48.524;9.044;2023-03-16T01:56:06;98142.97;;;4.15;55.40
13387;BME280;6763;48.524;9.044;2023-03-16T01:58:34;98139.50;;;4.09;55.42
13387;BME280;6763;48.524;9.044;2023-03-16T02:01:01;98136.03;;;4.04;55.77
13387;BME280;6763;48.524;9.044;2023-03-16T02:03:26;98136.81;;;4.00;55.74
13387;BME280;6763;48.524;9.044;2023-03-16T02:05:58;98132.50;;;3.96;55.40
13387;BME280;6763;48.524;9.044;2023-03-16T02:08:26;98136.72;;;3.92;55.65
13387;BME280;6763;48.524;9.044;2023-03-16T02:10:52;98135.84;;;3.90;55.78
13387;BME280;6763;48.524;9.044;2023-03-16T02:13:22;98128.16;;;3.89;55.88
13387;BME280;6763;48.524;9.044;2023-03-16T02:15:47;98130.66;;;3.87;55.76
13387;BME280;6763;48.524;9.044;2023-03-16T02:18:13;98128.97;;;3.86;56.13
13387;BME280;6763;48.524;9.044;2023-03-16T02:20:51;98123.88;;;3.89;56.28
13387;BME280;6763;48.524;9.044;2023-03-16T02:23:20;98118.81;;;3.94;56.30
13387;BME280;6763;48.524;9.044;2023-03-16T02:26:12;98108.66;;;4.01;56.57
13387;BME280;6763;48.524;9.044;2023-03-16T02:31:43;98100.28;;;4.14;56.81
13387;BME280;6763;48.524;9.044;2023-03-16T02:34:11;98097.78;;;4.19;56.90
13387;BME280;6763;48.524;9.044;2023-03-16T02:36:38;98104.63;;;4.21;56.70
13387;BME280;6763;48.524;9.044;2023-03-16T02:39:05;98108.09;;;4.25;56.77
13387;BME280;6763;48.524;9.044;2023-03-16T02:41:31;98109.00;;;4.31;57.04
13387;BME280;6763;48.524;9.044;2023-03-16T02:44:01;98114.22;;;4.39;56.95
13387;BME280;6763;48.524;9.044;2023-03-16T02:46:29;98111.72;;;4.45;57.31
13387;BME280;6763;48.524;9.044;2023-03-16T02:49:07;98110.13;;;4.53;57.41
13387;BME280;6763;48.524;9.044;2023-03-16T02:51:35;98116.16;;;4.58;57.51
13387;BME280;6763;48.524;9.044;2023-03-16T02:54:01;98124.75;;;4.63;57.34
13387;BME280;6763;48.524;9.044;2023-03-16T02:56:26;98109.41;;;4.66;57.45
13387;BME280;6763;48.524;9.044;2023-03-16T02:58:52;98114.53;;;4.68;57.55
13387;BME280;6763;48.524;9.044;2023-03-16T03:01:17;98117.13;;;4.71;57.63
13387;BME280;6763;48.524;9.044;2023-03-16T03:03:42;98109.44;;;4.72;57.63
13387;BME280;6763;48.524;9.044;2023-03-16T03:06:08;98108.59;;;4.73;57.68
13387;BME280;6763;48.524;9.044;2023-03-16T03:08:34;98106.91;;;4.74;57.37
13387;BME280;6763;48.524;9.044;2023-03-16T03:10:59;98103.47;;;4.73;57.79
13387;BME280;6763;48.524;9.044;2023-03-16T03:13:24;98100.03;;;4.73;57.60
13387;BME280;6763;48.524;9.044;2023-03-16T03:15:50;98100.03;;;4.71;57.65
13387;BME280;6763;48.524;9.044;2023-03-16T03:18:16;98088.09;;;4.72;57.94
13387;BME280;6763;48.524;9.044;2023-03-16T03:20:42;98085.53;;;4.73;57.90
13387;BME280;6763;48.524;9.044;2023-03-16T03:23:07;98088.09;;;4.75;58.09
13387;BME280;6763;48.524;9.044;2023-03-16T03:25:33;98088.16;;;4.79;58.01
13387;BME280;6763;48.524;9.044;2023-03-16T03:27:59;98083.88;;;4.83;58.04
13387;BME280;6763;48.524;9.044;2023-03-16T03:30:26;98087.34;;;4.85;57.63
13387;BME280;6763;48.524;9.044;2023-03-16T03:32:51;98083.06;;;4.84;57.67
13387;BME280;6763;48.524;9.044;2023-03-16T03:35:17;98077.06;;;4.83;58.04
13387;BME280;6763;48.524;9.044;2023-03-16T03:37:43;98077.94;;;4.84;57.92
13387;BME280;6763;48.524;9.044;2023-03-16T03:40:09;98082.16;;;4.80;57.64
13387;BME280;6763;48.524;9.044;2023-03-16T03:42:36;98079.59;;;4.80;57.90
13387;BME280;6763;48.524;9.044;2023-03-16T03:45:02;98077.03;;;4.79;57.66
13387;BME280;6763;48.524;9.044;2023-03-16T03:47:27;98083.84;;;4.78;57.82
13387;BME280;6763;48.524;9.044;2023-03-16T03:49:52;98079.59;;;4.79;58.00
13387;BME280;6763;48.524;9.044;2023-03-16T03:52:18;98071.03;;;4.78;57.89
13387;BME280;6763;48.524;9.044;2023-03-16T03:54:43;98073.59;;;4.77;57.74
13387;BME280;6763;48.524;9.044;2023-03-16T03:57:09;98077.84;;;4.75;57.85
13387;BME280;6763;48.524;9.044;2023-03-16T03:59:35;98082.97;;;4.73;57.83
13387;BME280;6763;48.524;9.044;2023-03-16T04:02:07;98076.94;;;4.68;57.61
13387;BME280;6763;48.524;9.044;2023-03-16T04:04:32;98076.03;;;4.65;57.65
13387;BME280;6763;48.524;9.044;2023-03-16T04:06:57;98080.25;;;4.60;57.43
13387;BME280;6763;48.524;9.044;2023-03-16T04:09:23;98081.97;;;4.56;57.84
13387;BME280;6763;48.524;9.044;2023-03-16T04:11:48;98078.50;;;4.53;57.58
13387;BME280;6763;48.524;9.044;2023-03-16T04:14:13;98071.63;;;4.49;57.82
13387;BME280;6763;48.524;9.044;2023-03-16T04:16:39;98075.84;;;4.45;57.43
13387;BME280;6763;48.524;9.044;2023-03-16T04:19:04;98068.13;;;4.42;57.46
13387;BME280;6763;48.524;9.044;2023-03-16T04:21:29;98064.75;;;4.43;57.53
13387;BME280;6763;48.524;9.044;2023-03-16T04:23:55;98074.13;;;4.43;57.80
13387;BME280;6763;48.524;9.044;2023-03-16T04:26:20;98063.88;;;4.44;58.06
13387;BME280;6763;48.524;9.044;2023-03-16T04:28:46;98056.19;;;4.44;57.92
13387;BME280;6763;48.524;9.044;2023-03-16T04:31:12;98059.59;;;4.40;57.72
13387;BME280;6763;48.524;9.044;2023-03-16T04:33:38;98056.16;;;4.38;57.76
13387;BME280;6763;48.524;9.044;2023-03-16T04:36:05;98053.56;;;4.36;57.79
13387;BME280;6763;48.524;9.044;2023-03-16T04:38:31;98054.41;;;4.35;57.96
13387;BME280;6763;48.524;9.044;2023-03-16T04:41:01;98051.00;;;4.35;57.84
13387;BME280;6763;48.524;9.044;2023-03-16T04:43:26;98056.09;;;4.33;57.75
13387;BME280;6763;48.524;9.044;2023-03-16T04:45:52;98054.34;;;4.31;57.79
13387;BME280;6763;48.524;9.044;2023-03-16T04:48:17;98055.22;;;4.30;57.97
13387;BME280;6763;48.524;9.044;2023-03-16T04:50:43;98059.47;;;4.31;57.89
13387;BME280;6763;48.524;9.044;2023-03-16T04:53:08;98055.22;;;4.31;58.32
13387;BME280;6763;48.524;9.044;2023-03-16T04:55:34;98048.41;;;4.33;58.07
13387;BME280;6763;48.524;9.044;2023-03-16T04:57:59;98056.97;;;4.37;57.99
13387;BME280;6763;48.524;9.044;2023-03-16T05:00:26;98056.16;;;4.38;57.92
13387;BME280;6763;48.524;9.044;2023-03-16T05:02:51;98054.47;;;4.40;57.96
13387;BME280;6763;48.524;9.044;2023-03-16T05:05:17;98052.72;;;4.37;58.34
13387;BME280;6763;48.524;9.044;2023-03-16T05:07:43;98045.88;;;4.36;57.72
13387;BME280;6763;48.524;9.044;2023-03-16T05:10:15;98047.56;;;4.36;57.77
13387;BME280;6763;48.524;9.044;2023-03-16T05:12:41;98049.25;;;4.34;57.91
13387;BME280;6763;48.524;9.044;2023-03-16T05:15:07;98052.66;;;4.30;57.62
13387;BME280;6763;48.524;9.044;2023-03-16T05:17:33;98050.06;;;4.27;57.85
13387;BME280;6763;48.524;9.044;2023-03-16T05:19:59;98048.28;;;4.23;57.60
13387;BME280;6763;48.524;9.044;2023-03-16T05:22:24;98052.53;;;4.21;57.69
13387;BME280;6763;48.524;9.044;2023-03-16T05:24:50;98057.66;;;4.19;57.59
13387;BME280;6763;48.524;9.044;2023-03-16T05:27:16;98056.75;;;4.14;57.75
13387;BME280;6763;48.524;9.044;2023-03-16T05:29:41;98061.84;;;4.13;57.60
13387;BME280;6763;48.524;9.044;2023-03-16T05:32:11;98054.97;;;4.10;57.82
13387;BME280;6763;48.524;9.044;2023-03-16T05:34:37;98059.22;;;4.07;57.94
13387;BME280;6763;48.524;9.044;2023-03-16T05:37:02;98060.09;;;4.09;58.12
13387;BME280;6763;48.524;9.044;2023-03-16T05:39:28;98061.84;;;4.10;57.83
13387;BME280;6763;48.524;9.044;2023-03-16T05:41:55;98055.03;;;4.12;57.82
13387;BME280;6763;48.524;9.044;2023-03-16T05:44:21;98052.41;;;4.09;57.90
13387;BME280;6763;48.524;9.044;2023-03-16T05:46:46;98054.94;;;4.07;57.78
13387;BME280;6763;48.524;9.044;2023-03-16T05:49:12;98044.69;;;4.06;57.92
13387;BME280;6763;48.524;9.044;2023-03-16T05:51:37;98052.38;;;4.07;58.13
13387;BME280;6763;48.524;9.044;2023-03-16T05:54:02;98044.78;;;4.12;58.04
13387;BME280;6763;48.524;9.044;2023-03-16T05:56:29;98047.38;;;4.15;57.88
13387;BME280;6763;48.524;9.044;2023-03-16T05:58:55;98036.25;;;4.16;57.87
13387;BME280;6763;48.524;9.044;2023-03-16T06:01:21;98037.13;;;4.18;57.87
13387;BME280;6763;48.524;9.044;2023-03-16T06:03:47;98049.97;;;4.19;57.88
13387;BME280;6763;48.524;9.044;2023-03-16T06:06:18;98037.16;;;4.21;57.90
13387;BME280;6763;48.524;9.044;2023-03-16T06:08:43;98040.56;;;4.17;58.00
13387;BME280;6763;48.524;9.044;2023-03-16T06:11:09;98035.44;;;4.17;57.86
13387;BME280;6763;48.524;9.044;2023-03-16T06:13:35;98046.53;;;4.19;57.91
13387;BME280;6763;48.524;9.044;2023-03-16T06:16:01;98040.59;;;4.23;58.48
13387;BME280;6763;48.524;9.044;2023-03-16T06:18:27;98040.66;;;4.29;57.98
13387;BME280;6763;48.524;9.044;2023-03-16T06:20:52;98041.53;;;4.28;57.68
13387;BME280;6763;48.524;9.044;2023-03-16T06:23:18;98050.03;;;4.25;57.54
13387;BME280;6763;48.524;9.044;2023-03-16T06:25:48;98040.63;;;4.24;57.80
13387;BME280;6763;48.524;9.044;2023-03-16T06:28:14;98047.50;;;4.27;58.31
13387;BME280;6763;48.524;9.044;2023-03-16T06:30:39;98045.00;;;4.34;57.92
13387;BME280;6763;48.524;9.044;2023-03-16T06:33:05;98048.47;;;4.41;58.19
13387;BME280;6763;48.524;9.044;2023-03-16T06:35:30;98047.69;;;4.48;58.14
13387;BME280;6763;48.524;9.044;2023-03-16T06:37:56;98044.34;;;4.55;58.08
13387;BME280;6763;48.524;9.044;2023-03-16T06:40:21;98048.63;;;4.59;57.62
13387;BME280;6763;48.524;9.044;2023-03-16T06:42:47;98049.53;;;4.61;57.76
13387;BME280;6763;48.524;9.044;2023-03-16T06:45:13;98043.59;;;4.67;57.79
13387;BME280;6763;48.524;9.044;2023-03-16T06:47:40;98049.63;;;4.73;57.22
13387;BME280;6763;48.524;9.044;2023-03-16T06:50:08;98044.56;;;4.79;57.37
13387;BME280;6763;48.524;9.044;2023-03-16T06:52:33;98048.00;;;4.81;56.95
13387;BME280;6763;48.524;9.044;2023-03-16T06:54:59;98049.72;;;4.82;56.95
13387;BME280;6763;48.524;9.044;2023-03-16T06:57:24;98054.84;;;4.85;56.74
13387;BME280;6763;48.524;9.044;2023-03-16T06:59:49;98054.84;;;4.85;56.93
13387;BME280;6763;48.524;9.044;2023-03-16T07:02:15;98050.59;;;4.86;57.12
13387;BME280;6763;48.524;9.044;2023-03-16T07:04:41;98058.28;;;4.86;56.32
13387;BME280;6763;48.524;9.044;2023-03-16T07:07:07;98053.97;;;4.82;56.53
13387;BME280;6763;48.524;9.044;2023-03-16T07:09:33;98062.53;;;4.82;56.61
13387;BME280;6763;48.524;9.044;2023-03-16T07:11:58;98065.13;;;4.87;56.76
13387;BME280;6763;48.524;9.044;2023-03-16T07:14:23;98055.75;;;4.89;56.43
13387;BME280;6763;48.524;9.044;2023-03-16T07:16:50;98065.19;;;4.96;56.48
13387;BME280;6763;48.524;9.044;2023-03-16T07:19:17;98064.34;;;4.98;56.65
13387;BME280;6763;48.524;9.044;2023-03-16T07:21:42;98073.81;;;5.04;56.35
13387;BME280;6763;48.524;9.044;2023-03-16T07:24:09;98058.50;;;5.15;56.66
13387;BME280;6763;48.524;9.044;2023-03-16T07:26:35;98065.47;;;5.31;56.52
13387;BME280;6763;48.524;9.044;2023-03-16T07:29:00;98064.69;;;5.44;56.49
13387;BME280;6763;48.524;9.044;2023-03-16T07:31:27;98063.03;;;5.55;55.84
13387;BME280;6763;48.524;9.044;2023-03-16T07:33:52;98060.50;;;5.64;55.97
13387;BME280;6763;48.524;9.044;2023-03-16T07:36:18;98063.13;;;5.76;55.75
13387;BME280;6763;48.524;9.044;2023-03-16T07:38:43;98064.06;;;5.87;55.47
13387;BME280;6763;48.524;9.044;2023-03-16T07:41:09;98064.13;;;5.99;55.67
13387;BME280;6763;48.524;9.044;2023-03-16T07:43:34;98058.16;;;6.06;55.06
13387;BME280;6763;48.524;9.044;2023-03-16T07:45:59;98066.72;;;6.10;54.56
13387;BME280;6763;48.524;9.044;2023-03-16T07:48:25;98066.75;;;6.13;54.24
13387;BME280;6763;48.524;9.044;2023-03-16T07:50:51;98072.75;;;6.16;54.12
13387;BME280;6763;48.524;9.044;2023-03-16T07:53:17;98062.50;;;6.25;54.51
13387;BME280;6763;48.524;9.044;2023-03-16T07:55:42;98064.22;;;6.39;54.22
13387;BME280;6763;48.524;9.044;2023-03-16T07:58:09;98057.41;;;6.51;53.88
13387;BME280;6763;48.524;9.044;2023-03-16T08:00:35;98056.59;;;6.66;53.73
13387;BME280;6763;48.524;9.044;2023-03-16T08:03:00;98058.31;;;6.83;53.60
13387;BME280;6763;48.524;9.044;2023-03-16T08:05:26;98054.88;;;6.94;53.65
13387;BME280;6763;48.524;9.044;2023-03-16T08:07:51;98043.72;;;7.05;53.96
13387;BME280;6763;48.524;9.044;2023-03-16T08:10:18;98045.41;;;7.23;53.21
13387;BME280;6763;48.524;9.044;2023-03-16T08:12:43;98059.97;;;7.37;52.71
13387;BME280;6763;48.524;9.044;2023-03-16T08:15:09;98054.81;;;7.48;52.44
13387;BME280;6763;48.524;9.044;2023-03-16T08:17:35;98047.88;;;7.65;52.49
13387;BME280;6763;48.524;9.044;2023-03-16T08:20:03;98054.69;;;7.90;52.40
13387;BME280;6763;48.524;9.044;2023-03-16T08:22:34;98058.88;;;8.09;51.91
13387;BME280;6763;48.524;9.044;2023-03-16T08:25:01;98060.53;;;8.23;51.65
13387;BME280;6763;48.524;9.044;2023-03-16T08:27:27;98062.25;;;8.31;51.14
13387;BME280;6763;48.524;9.044;2023-03-16T08:29:54;98058.78;;;8.38;51.23
13387;BME280;6763;48.524;9.044;2023-03-16T08:32:19;98059.66;;;8.40;51.10
13387;BME280;6763;48.524;9.044;2023-03-16T08:34:45;98052.78;;;8.36;50.71
13387;BME280;6763;48.524;9.044;2023-03-16T08:37:11;98049.34;;;8.33;50.66
13387;BME280;6763;48.524;9.044;2023-03-16T08:39:39;98044.25;;;8.27;50.78
13387;BME280;6763;48.524;9.044;2023-03-16T08:42:06;98034.78;;;8.18;50.81
13387;BME280;6763;48.524;9.044;2023-03-16T08:44:32;98027.13;;;8.03;50.69
13387;BME280;6763;48.524;9.044;2023-03-16T08:46:57;98028.88;;;7.95;51.13
13387;BME280;6763;48.524;9.044;2023-03-16T08:49:24;98025.50;;;7.87;51.86
13387;BME280;6763;48.524;9.044;2023-03-16T08:51:49;98011.75;;;7.85;52.53
13387;BME280;6763;48.524;9.044;2023-03-16T08:54:15;98004.00;;;7.86;52.85
13387;BME280;6763;48.524;9.044;2023-03-16T08:56:41;98007.41;;;7.94;53.51
13387;BME280;6763;48.524;9.044;2023-03-16T08:59:07;98003.06;;;8.02;53.09
13387;BME280;6763;48.524;9.044;2023-03-16T09:01:33;98009.06;;;8.10;53.08
13387;BME280;6763;48.524;9.044;2023-03-16T09:03:58;98003.88;;;8.20;53.30
13387;BME280;6763;48.524;9.044;2023-03-16T09:06:25;97998.63;;;8.35;53.65
13387;BME280;6763;48.524;9.044;2023-03-16T09:08:51;97989.94;;;8.49;53.56
13387;BME280;6763;48.524;9.044;2023-03-16T09:11:18;97998.44;;;8.63;52.63
13387;BME280;6763;48.524;9.044;2023-03-16T09:13:44;98003.50;;;8.74;52.75
13387;BME280;6763;48.524;9.044;2023-03-16T09:16:11;97993.88;;;8.90;52.21
13387;BME280;6763;48.524;9.044;2023-03-16T09:18:38;97985.16;;;9.07;52.29
13387;BME280;6763;48.524;9.044;2023-03-16T09:21:06;97978.91;;;9.26;51.03
13387;BME280;6763;48.524;9.044;2023-03-16T09:23:33;97973.56;;;9.43;50.88
13387;BME280;6763;48.524;9.044;2023-03-16T09:26:03;97972.50;;;9.62;50.74
13387;BME280;6763;48.524;9.044;2023-03-16T09:28:30;97969.63;;;9.85;50.82
13387;BME280;6763;48.524;9.044;2023-03-16T09:30:56;97966.69;;;10.11;49.52
13387;BME280;6763;48.524;9.044;2023-03-16T09:33:23;97972.34;;;10.38;49.54
13387;BME280;6763;48.524;9.044;2023-03-16T09:35:49;97973.59;;;10.70;49.06
13387;BME280;6763;48.524;9.044;2023-03-16T09:38:16;97963.50;;;11.05;48.37
13387;BME280;6763;48.524;9.044;2023-03-16T09:40:44;97961.16;;;11.37;46.70
13387;BME280;6763;48.524;9.044;2023-03-16T09:48:26;97950.75;;;12.23;44.75
13387;BME280;6763;48.524;9.044;2023-03-16T09:50:54;97950.94;;;12.52;42.42
13387;BME280;6763;48.524;9.044;2023-03-16T09:55:57;97925.31;;;13.07;42.04
13387;BME280;6763;48.524;9.044;2023-03-16T09:58:24;97924.44;;;13.41;40.78
13387;BME280;6763;48.524;9.044;2023-03-16T10:01:00;97919.63;;;13.86;40.33
13387;BME280;6763;48.524;9.044;2023-03-16T10:05:59;97923.53;;;14.83;39.61
13387;BME280;6763;48.524;9.044;2023-03-16T10:08:31;97928.50;;;15.40;39.04
13387;BME280;6763;48.524;9.044;2023-03-16T10:13:59;97913.78;;;16.74;36.88
13387;BME280;6763;48.524;9.044;2023-03-16T10:16:38;97902.22;;;17.20;35.72
13387;BME280;6763;48.524;9.044;2023-03-16T10:21:49;97912.72;;;18.16;34.49
13387;BME280;6763;48.524;9.044;2023-03-16T10:27:24;97900.63;;;19.19;32.90
13387;BME280;6763;48.524;9.044;2023-03-16T10:29:52;97898.88;;;19.70;32.20
13387;BME280;6763;48.524;9.044;2023-03-16T10:32:17;97892.81;;;20.16;31.13
13387;BME280;6763;48.524;9.044;2023-03-16T10:34:47;97889.34;;;20.63;30.13
13387;BME280;6763;48.524;9.044;2023-03-16T10:37:17;97893.59;;;21.11;28.66
13387;BME280;6763;48.524;9.044;2023-03-16T10:39:42;97896.66;;;21.47;28.01
13387;BME280;6763;48.524;9.044;2023-03-16T10:42:16;97906.28;;;21.90;27.36
13387;BME280;6763;48.524;9.044;2023-03-16T10:44:43;97896.63;;;22.32;26.97
13387;BME280;6763;48.524;9.044;2023-03-16T10:47:29;97876.66;;;22.54;25.10
13387;BME280;6763;48.524;9.044;2023-03-16T10:49:55;97876.34;;;22.73;25.41
13387;BME280;6763;48.524;9.044;2023-03-16T10:54:52;97855.41;;;23.09;24.28
13387;BME280;6763;48.524;9.044;2023-03-16T10:59:50;97845.25;;;23.79;23.83
13387;BME280;6763;48.524;9.044;2023-03-16T11:02:19;97852.31;;;24.16;23.18
13387;BME280;6763;48.524;9.044;2023-03-16T11:04:46;97845.34;;;24.39;22.06
13387;BME280;6763;48.524;9.044;2023-03-16T11:07:17;97838.97;;;24.41;21.03
13387;BME280;6763;48.524;9.044;2023-03-16T11:09:43;97842.13;;;24.46;20.73
13387;BME280;6763;48.524;9.044;2023-03-16T11:12:13;97844.16;;;24.66;20.57
13387;BME280;6763;48.524;9.044;2023-03-16T11:14:43;97846.78;;;24.90;19.81
13387;BME280;6763;48.524;9.044;2023-03-16T11:17:16;97833.31;;;24.93;19.44
13387;BME280;6763;48.524;9.044;2023-03-16T11:19:55;97833.31;;;24.69;18.75
13387;BME280;6763;48.524;9.044;2023-03-16T11:22:25;97836.44;;;24.16;18.80
13387;BME280;6763;48.524;9.044;2023-03-16T11:25:27;97826.56;;;23.69;18.96
13387;BME280;6763;48.524;9.044;2023-03-16T11:28:27;97832.53;;;23.60;19.36
13387;BME280;6763;48.524;9.044;2023-03-16T11:31:18;97827.75;;;23.65;19.26
13387;BME280;6763;48.524;9.044;2023-03-16T11:33:46;97823.91;;;23.82;19.27
13387;BME280;6763;48.524;9.044;2023-03-16T11:38:57;97813.06;;;24.10;18.68
13387;BME280;6763;48.524;9.044;2023-03-16T11:50:09;97797.88;;;23.88;19.01
13387;BME280;6763;48.524;9.044;2023-03-16T11:53:12;97801.69;;;23.84;18.41
13387;BME280;6763;48.524;9.044;2023-03-16T11:56:11;97793.09;;;23.93;17.82
13387;BME280;6763;48.524;9.044;2023-03-16T12:04:06;97788.84;;;22.52;18.36
13387;BME280;6763;48.524;9.044;2023-03-16T12:09:23;97781.91;;;23.41;18.71
13387;BME280;6763;48.524;9.044;2023-03-16T12:11:59;97776.13;;;23.72;17.10
13387;BME280;6763;48.524;9.044;2023-03-16T12:14:37;97778.28;;;23.67;17.56
13387;BME280;6763;48.524;9.044;2023-03-16T12:17:12;97776.06;;;23.97;17.67
13387;BME280;6763;48.524;9.044;2023-03-16T12:20:04;97763.31;;;24.39;17.01
13387;BME280;6763;48.524;9.044;2023-03-16T12:22:43;97763.97;;;24.88;16.61
13387;BME280;6763;48.524;9.044;2023-03-16T12:25:18;97753.41;;;25.33;16.19
13387;BME280;6763;48.524;9.044;2023-03-16T12:27:48;97745.13;;;25.70;16.16
13387;BME280;6763;48.524;9.044;2023-03-16T12:33:10;97733.63;;;25.92;14.73
13387;BME280;6763;48.524;9.044;2023-03-16T12:41:43;97750.16;;;25.40;14.77
13387;BME280;6763;48.524;9.044;2023-03-16T12:45:07;97741.09;;;24.98;14.13
13387;BME280;6763;48.524;9.044;2023-03-16T12:47:49;97737.41;;;24.66;14.91
13387;BME280;6763;48.524;9.044;2023-03-16T12:50:18;97734.59;;;24.91;15.13
13387;BME280;6763;48.524;9.044;2023-03-16T12:52:47;97718.34;;;24.96;14.72
13387;BME280;6763;48.524;9.044;2023-03-16T12:55:16;97726.56;;;24.93;15.13
13387;BME280;6763;48.524;9.044;2023-03-16T12:57:43;97728.84;;;24.97;15.17
13387;BME280;6763;48.524;9.044;2023-03-16T13:00:10;97736.56;;;25.22;14.98
13387;BME280;6763;48.524;9.044;2023-03-16T13:02:41;97719.94;;;25.65;14.06
13387;BME280;6763;48.524;9.044;2023-03-16T13:05:13;97724.94;;;26.01;14.35
13387;BME280;6763;48.524;9.044;2023-03-16T13:08:02;97712.59;;;26.43;13.96
13387;BME280;6763;48.524;9.044;2023-03-16T13:10:28;97708.53;;;26.80;13.96
13387;BME280;6763;48.524;9.044;2023-03-16T13:12:53;97706.88;;;26.79;14.14
13387;BME280;6763;48.524;9.044;2023-03-16T13:17:48;97730.03;;;25.71;14.37
13387;BME280;6763;48.524;9.044;2023-03-16T13:20:28;97723.19;;;25.24;14.51
13387;BME280;6763;48.524;9.044;2023-03-16T13:25:44;97719.88;;;24.76;15.11
13387;BME280;6763;48.524;9.044;2023-03-16T13:28:14;97713.78;;;24.41;14.82
13387;BME280;6763;48.524;9.044;2023-03-16T13:30:46;97704.84;;;24.07;15.05
13387;BME280;6763;48.524;9.044;2023-03-16T13:35:45;97700.50;;;24.76;15.31
13387;BME280;6763;48.524;9.044;2023-03-16T13:38:14;97700.22;;;25.47;14.75
13387;BME280;6763;48.524;9.044;2023-03-16T13:40:51;97701.38;;;26.19;14.00
13387;BME280;6763;48.524;9.044;2023-03-16T13:43:21;97695.44;;;26.88;13.90
13387;BME280;6763;48.524;9.044;2023-03-16T13:45:47;97705.09;;;27.50;13.79
13387;BME280;6763;48.524;9.044;2023-03-16T13:48:14;97688.44;;;28.07;13.20
13387;BME280;6763;48.524;9.044;2023-03-16T13:50:41;97687.91;;;28.32;12.62
13387;BME280;6763;48.524;9.044;2023-03-16T13:53:16;97688.03;;;28.40;12.99
13387;BME280;6763;48.524;9.044;2023-03-16T13:55:44;97686.34;;;28.49;12.65
13387;BME280;6763;48.524;9.044;2023-03-16T14:00:44;97684.38;;;28.70;12.53
13387;BME280;6763;48.524;9.044;2023-03-16T14:03:18;97681.31;;;28.65;12.60
13387;BME280;6763;48.524;9.044;2023-03-16T14:05:46;97682.56;;;28.61;12.36
13387;BME280;6763;48.524;9.044;2023-03-16T14:08:21;97670.63;;;28.46;12.17
13387;BME280;6763;48.524;9.044;2023-03-16T14:10:49;97672.06;;;28.30;12.31
13387;BME280;6763;48.524;9.044;2023-03-16T14:15:51;97677.13;;;27.46;13.23
13387;BME280;6763;48.524;9.044;2023-03-16T14:18:19;97665.13;;;27.61;13.10
13387;BME280;6763;48.524;9.044;2023-03-16T14:20:53;97656.28;;;27.60;12.64
13387;BME280;6763;48.524;9.044;2023-03-16T14:23:30;97646.50;;;27.61;12.99
13387;BME280;6763;48.524;9.044;2023-03-16T14:25:57;97647.66;;;27.97;12.82
13387;BME280;6763;48.524;9.044;2023-03-16T14:28:29;97634.47;;;28.43;12.79
13387;BME280;6763;48.524;9.044;2023-03-16T14:31:09;97633.00;;;28.87;12.36
13387;BME280;6763;48.524;9.044;2023-03-16T14:33:37;97628.63;;;28.96;12.11
13387;BME280;6763;48.524;9.044;2023-03-16T14:36:16;97619.09;;;28.37;12.29
13387;BME280;6763;48.524;9.044;2023-03-16T14:38:46;97606.88;;;27.48;12.56